createdAt,value
2023-04-08T00:27:25.172Z,3.16
2023-04-08T00:42:25.167Z,3.32
2023-04-08T00:57:25.604Z,3.92
2023-04-08T01:12:25.587Z,3.13
2023-04-08T01:42:25.783Z,5.18
2023-04-08T01:57:25.131Z,3.7
2023-04-08T02:12:25.212Z,3.33
2023-04-08T02:27:25.264Z,3.6
2023-04-08T02:42:25.345Z,4.3
2023-04-08T02:57:25.397Z,4.77
2023-04-08T03:12:26.786Z,8.48
2023-04-08T03:27:25.669Z,36.51
2023-04-08T03:42:25.445Z,27.95
2023-04-08T03:57:25.733Z,15.76
2023-04-08T04:12:25.461Z,4.07
2023-04-08T04:27:25.808Z,7.69
2023-04-08T04:42:25.430Z,4.75
2023-04-08T04:57:25.232Z,2.88
2023-04-08T05:12:25.978Z,5.06
2023-04-08T05:27:25.806Z,4.89
2023-04-08T05:42:25.852Z,19.32
2023-04-08T05:57:25.464Z,48.9
2023-04-08T06:12:25.588Z,6.04
2023-04-08T06:42:25.303Z,31.79
2023-04-08T06:57:25.596Z,14.08
2023-04-08T07:12:25.806Z,6.52
2023-04-08T07:27:25.408Z,19.45
2023-04-08T07:42:25.569Z,15.37
2023-04-08T07:57:25.494Z,22.21
2023-04-08T08:12:25.356Z,12.25
2023-04-08T08:27:25.859Z,6.08
2023-04-08T08:42:25.513Z,4.2
2023-04-08T08:57:25.702Z,5.51
2023-04-08T09:12:25.875Z,5.75
2023-04-08T09:27:25.159Z,4.78
2023-04-08T09:57:25.721Z,13.14
2023-04-08T10:12:25.330Z,15.61
2023-04-08T10:27:25.531Z,11.42
2023-04-08T10:42:26.046Z,10.31
2023-04-08T11:12:25.984Z,12.13
2023-04-08T11:27:26.006Z,24.96
2023-04-08T11:57:25.591Z,29.74
2023-04-08T12:12:25.370Z,3.24
2023-04-08T12:42:25.433Z,5.39
2023-04-08T12:57:25.851Z,7.9
2023-04-08T13:12:25.868Z,11.85
2023-04-08T13:27:25.962Z,6.93
2023-04-08T13:42:25.687Z,7.25
2023-04-08T13:57:25.258Z,8.1
2023-04-08T14:12:25.921Z,8.45
2023-04-08T14:27:25.985Z,10.79
2023-04-08T14:42:25.505Z,11.09
2023-04-08T14:57:25.979Z,16.95
2023-04-08T15:12:25.472Z,21.39
2023-04-08T15:27:25.201Z,22.52
2023-04-08T15:42:25.961Z,22.92
2023-04-08T15:57:25.550Z,23.85
2023-04-08T16:27:25.283Z,25.21
2023-04-08T16:42:26.824Z,28.36
2023-04-08T16:57:26.893Z,24.74
2023-04-08T17:12:25.718Z,25.02
2023-04-08T17:27:26.038Z,28.49
2023-04-08T17:42:25.484Z,33.17
2023-04-08T17:57:26.007Z,40.97
2023-04-08T18:12:25.904Z,46.28
2023-04-08T18:27:25.294Z,44.17
2023-04-08T18:42:25.359Z,45.19
2023-04-08T19:12:25.672Z,32.32
2023-04-08T19:27:25.889Z,32.87
2023-04-08T19:57:25.398Z,31.43
2023-04-08T20:12:25.680Z,29.29
2023-04-08T20:42:25.760Z,27.95
2023-04-08T20:57:25.876Z,26.41
2023-04-08T21:12:25.558Z,27.81
2023-04-08T21:27:25.431Z,28.53
2023-04-08T21:42:25.255Z,25.24
2023-04-08T21:57:25.614Z,25.08
2023-04-08T22:12:25.732Z,28.26
2023-04-08T22:27:25.693Z,27.93
2023-04-08T22:42:25.893Z,28.19
2023-04-08T23:12:25.378Z,30.45
2023-04-08T23:27:25.861Z,30.33
2023-04-08T23:42:25.218Z,29.1
2023-04-08T23:57:25.531Z,29
